Time;durP1;ratioP1;P1;durP2;ratioP2;P2;SDS_P1;SDS_P2;PMS_P1;PMS_P2;Temp;Humidity;BMP_temperature;BMP_pressure;BME280_temperature;BME280_humidity;BME280_pressure;Samples;Min_cycle;Max_cycle;Signal;HPM_P1;HPM_P2
2022/12/14 00:01:07;;;;;;;39.60;17.90;;;;;;;0.93;55.74;98334.75;4503342;31;20531;-92
2022/12/14 00:03:32;;;;;;;42.80;17.67;;;;;;;0.90;55.85;98346.03;4488881;31;20455;-92
2022/12/14 00:05:57;;;;;;;40.17;18.25;;;;;;;0.92;55.75;98343.41;4503309;31;20168;-92
2022/12/14 00:08:23;;;;;;;37.28;18.12;;;;;;;0.86;55.75;98338.38;4488853;31;20111;-92
2022/12/14 00:10:48;;;;;;;42.97;16.85;;;;;;;0.84;55.80;98337.56;4502746;31;20440;-92
2022/12/14 00:13:14;;;;;;;40.72;18.75;;;;;;;0.85;55.79;98340.13;4502707;31;20091;-92
2022/12/14 00:15:40;;;;;;;40.03;18.25;;;;;;;0.87;55.78;98333.16;4503040;31;20115;-92
2022/12/14 00:18:05;;;;;;;43.55;19.37;;;;;;;0.87;55.77;98333.16;4475418;31;20108;-92
2022/12/14 00:20:32;;;;;;;38.30;17.73;;;;;;;0.86;55.75;98334.03;4488532;31;20096;-87
2022/12/14 00:22:57;;;;;;;37.60;17.48;;;;;;;0.89;55.88;98333.09;4488466;31;20134;-87
2022/12/14 00:25:23;;;;;;;37.40;17.25;;;;;;;0.91;55.88;98332.19;4502879;31;20088;-87
2022/12/14 00:27:49;;;;;;;37.97;17.48;;;;;;;0.90;56.00;98333.06;4502826;31;20092;-87
2022/12/14 00:30:17;;;;;;;41.03;19.30;;;;;;;0.91;56.01;98332.19;4502706;31;20100;-86
2022/12/14 00:32:42;;;;;;;;;;;;;;;0.97;56.02;98339.84;4503164;31;20099;-86
2022/12/14 00:35:09;;;;;;;37.20;17.87;;;;;;;1.01;56.00;98345.81;4502084;31;19972;-86
2022/12/14 00:37:35;;;;;;;42.03;19.47;;;;;;;1.04;56.04;98339.69;4488347;31;20080;-86
2022/12/14 00:40:00;;;;;;;37.13;17.73;;;;;;;1.07;56.00;98339.63;4502723;31;20140;-86
2022/12/14 00:42:26;;;;;;;41.72;18.02;;;;;;;1.10;55.63;98344.72;4488670;31;20406;-86
2022/12/14 00:44:52;;;;;;;42.45;19.42;;;;;;;1.13;55.44;98342.06;4502983;31;20110;-86
2022/12/14 00:47:17;;;;;;;43.63;19.62;;;;;;;1.16;55.41;98339.41;4502854;31;20377;-86
2022/12/14 00:49:42;;;;;;;41.08;19.23;;;;;;;1.15;55.42;98342.88;4502801;31;20145;-86
2022/12/14 00:52:08;;;;;;;45.55;20.62;;;;;;;1.24;55.12;98342.66;4502819;31;20136;-89
2022/12/14 00:54:33;;;;;;;41.78;18.62;;;;;;;1.16;54.81;98345.44;4502854;31;20325;-89
2022/12/14 00:56:59;;;;;;;41.92;19.30;;;;;;;1.16;54.78;98347.19;4502806;31;20092;-90
2022/12/14 00:59:24;;;;;;;43.55;20.50;;;;;;;1.21;54.63;98347.91;4501839;31;20125;-89
2022/12/14 01:01:49;;;;;;;45.72;21.30;;;;;;;1.23;54.64;98346.13;4487013;31;20116;-90
2022/12/14 01:04:18;;;;;;;44.00;20.80;;;;;;;0.95;54.95;98348.53;4486988;32;20325;-89
2022/12/14 01:06:47;;;;;;;46.55;20.88;;;;;;;1.11;54.48;98351.62;4486940;31;20471;-90
2022/12/14 01:09:13;;;;;;;45.40;20.80;;;;;;;1.18;54.62;98358.41;4485403;32;20130;-90
2022/12/14 01:11:39;;;;;;;47.22;20.90;;;;;;;1.20;55.03;98358.31;4486457;31;20132;-90
2022/12/14 01:14:05;;;;;;;45.60;22.73;;;;;;;1.24;54.91;98360.00;4485425;32;20084;-89
2022/12/14 01:16:30;;;;;;;46.05;21.92;;;;;;;1.21;54.84;98363.50;4486592;31;20096;-90
2022/12/14 01:18:58;;;;;;;45.75;21.23;;;;;;;1.10;54.59;98355.97;4486531;31;20112;-90
2022/12/14 01:21:23;;;;;;;51.55;21.70;;;;;;;1.18;54.24;98354.03;4486446;31;20104;-90
2022/12/14 01:23:57;;;;;;;48.42;22.15;;;;;;;1.24;54.13;98363.44;4485238;32;20120;-89
2022/12/14 01:26:24;;;;;;;48.83;21.27;;;;;;;1.28;54.06;98362.47;4486301;31;20103;-90
2022/12/14 01:28:52;;;;;;;42.70;22.07;;;;;;;1.25;53.93;98362.53;4486681;31;20116;-89
2022/12/14 01:31:20;;;;;;;50.85;22.13;;;;;;;1.23;53.99;98360.88;4486648;32;20119;-90
2022/12/14 01:33:47;;;;;;;46.58;22.98;;;;;;;1.22;54.27;98361.75;4485411;32;20509;-90
2022/12/14 01:36:15;;;;;;;51.63;23.10;;;;;;;1.23;54.17;98350.50;4485069;32;20115;-89
2022/12/14 01:38:41;;;;;;;52.65;23.70;;;;;;;0.07;56.70;98365.91;4486192;31;20100;-89
2022/12/14 01:41:07;;;;;;;50.35;22.98;;;;;;;-0.15;57.34;98367.22;4485050;32;20118;-89
2022/12/14 01:43:52;;;;;;;50.60;22.23;;;;;;;0.43;56.15;98357.47;4486265;31;20091;-89
2022/12/14 01:46:26;;;;;;;46.97;21.98;;;;;;;0.74;55.76;98349.88;4486945;31;20107;-89
2022/12/14 01:49:11;;;;;;;49.92;22.83;;;;;;;0.89;55.63;98351.25;4488034;31;20384;-89
2022/12/14 01:51:37;;;;;;;52.22;22.87;;;;;;;0.93;55.42;98345.97;4488185;31;20089;-88
2022/12/14 01:54:04;;;;;;;49.30;21.45;;;;;;;1.01;54.98;98344.97;4488200;31;20072;-89
2022/12/14 01:56:30;;;;;;;44.38;20.77;;;;;;;1.03;54.68;98345.78;4487002;32;20145;-89
2022/12/14 01:58:58;;;;;;;45.92;21.20;;;;;;;1.00;54.62;98333.72;4487903;31;20088;-88
2022/12/14 02:01:23;;;;;;;49.33;21.30;;;;;;;1.03;54.55;98332.81;4488105;31;20096;-89
2022/12/14 02:03:50;;;;;;;46.33;19.27;;;;;;;1.06;54.48;98327.53;4488041;32;20099;-88
2022/12/14 02:06:26;;;;;;;43.47;19.23;;;;;;;1.10;54.35;98327.44;4486857;32;20084;-89
2022/12/14 02:08:52;;;;;;;43.30;18.42;;;;;;;1.09;54.37;98328.31;4486755;32;20184;-89
2022/12/14 02:11:27;;;;;;;48.55;18.92;;;;;;;1.15;54.49;98324.72;4486859;32;20088;-89
2022/12/14 02:13:52;;;;;;;44.67;19.05;;;;;;;1.18;54.31;98335.88;4486965;32;20089;-89
2022/12/14 02:16:17;;;;;;;44.85;19.35;;;;;;;1.15;54.36;98333.34;4486650;32;20092;-89
2022/12/14 02:18:43;;;;;;;51.72;18.60;;;;;;;1.18;54.18;98327.25;4487924;32;20119;-89
2022/12/14 02:21:35;;;;;;;42.75;18.70;;;;;;;1.19;54.16;98323.75;4486458;32;20357;-89
2022/12/14 02:24:34;;;;;;;45.92;19.20;;;;;;;1.16;54.45;98326.44;4487893;32;20110;-88
2022/12/14 02:27:28;;;;;;;45.03;18.92;;;;;;;1.17;54.52;98321.19;4488281;32;20150;-89
2022/12/14 02:30:02;;;;;;;45.50;17.08;;;;;;;1.21;54.65;98321.97;4484910;31;20160;-88
2022/12/14 02:33:02;;;;;;;47.03;16.52;;;;;;;1.25;54.53;98323.59;4500698;31;20100;-90
2022/12/14 02:35:42;;;;;;;44.30;17.48;;;;;;;1.22;54.49;98320.22;4503992;31;20092;-89
2022/12/14 02:38:26;;;;;;;43.30;16.85;;;;;;;1.10;54.68;98314.47;4503710;31;20103;-89
2022/12/14 02:40:52;;;;;;;40.95;15.77;;;;;;;1.20;54.94;98315.09;4503612;31;20127;-89
2022/12/14 02:43:55;;;;;;;50.12;18.33;;;;;;;1.19;54.97;98310.78;4503622;31;20144;-89
2022/12/14 02:46:42;;;;;;;44.40;16.80;;;;;;;1.23;55.04;98312.41;4495041;31;20079;-89
2022/12/14 02:49:15;;;;;;;44.50;16.40;;;;;;;1.25;55.20;98307.19;4476213;31;20430;-89
2022/12/14 02:51:53;;;;;;;42.35;16.92;;;;;;;1.28;55.35;98307.97;4489600;31;20483;-89
2022/12/14 02:54:30;;;;;;;46.13;17.05;;;;;;;1.13;55.59;98306.59;4489224;31;20114;-89
2022/12/14 02:57:05;;;;;;;49.90;18.08;;;;;;;1.25;55.62;98305.44;4488339;31;20079;-89
2022/12/14 02:59:32;;;;;;;49.90;17.25;;;;;;;1.29;55.52;98314.00;4486376;32;20103;-89
2022/12/14 03:01:59;;;;;;;47.35;17.30;;;;;;;1.32;55.57;98295.78;4486814;32;20108;-89
2022/12/14 03:04:25;;;;;;;43.33;16.92;;;;;;;1.33;55.51;98298.34;4488149;31;20097;-89
2022/12/14 03:06:56;;;;;;;50.35;18.95;;;;;;;1.33;55.71;98297.47;4487849;32;20489;-89
2022/12/14 03:09:22;;;;;;;52.95;18.25;;;;;;;1.23;55.93;98309.81;4486659;32;20096;-89
2022/12/14 03:11:51;;;;;;;44.10;16.37;;;;;;;1.29;56.12;98298.44;4486547;32;20105;-89
2022/12/14 03:14:22;;;;;;;56.03;18.73;;;;;;;1.33;56.12;98279.28;4486724;32;20092;-89
2022/12/14 03:16:50;;;;;;;46.15;17.25;;;;;;;1.34;56.25;98286.22;4486789;32;20114;-89
2022/12/14 03:19:29;;;;;;;49.13;17.62;;;;;;;1.35;56.30;98285.31;4486230;32;20088;-89
2022/12/14 03:22:00;;;;;;;52.92;18.75;;;;;;;1.33;56.64;98281.91;4487673;31;20755;-88
2022/12/14 03:24:38;;;;;;;51.37;17.02;;;;;;;1.33;56.73;98280.19;4486361;32;20105;-89
2022/12/14 03:27:13;;;;;;;54.73;17.67;;;;;;;1.31;56.90;98281.09;4486403;32;20503;-89
2022/12/14 03:29:44;;;;;;;48.42;16.83;;;;;;;1.40;56.86;98287.78;4487431;31;20235;-89
2022/12/14 03:32:14;;;;;;;61.42;18.67;;;;;;;1.45;56.84;98291.09;4486289;32;20151;-87
2022/12/14 03:34:46;;;;;;;48.85;17.50;;;;;;;0.77;58.58;98288.44;4486499;32;20092;-87
2022/12/14 03:37:15;;;;;;;52.72;20.00;;;;;;;0.95;58.09;98278.53;4475386;31;20135;-87
2022/12/14 03:39:42;;;;;;;54.47;18.83;;;;;;;1.20;57.56;98265.81;4488690;31;20455;-87
2022/12/14 03:42:24;;;;;;;51.97;19.50;;;;;;;1.31;57.55;98265.50;4474012;32;20396;-92
2022/12/14 03:44:49;;;;;;;47.65;18.40;;;;;;;1.38;57.73;98257.53;4473277;32;20123;-92
2022/12/14 03:47:24;;;;;;;56.00;18.65;;;;;;;1.45;57.77;98266.03;4487387;32;20385;-91
2022/12/14 03:50:13;;;;;;;51.65;19.75;;;;;;;1.54;57.54;98257.13;4487375;32;20089;-90
2022/12/14 03:52:54;;;;;;;55.87;19.17;;;;;;;1.58;57.30;98258.75;4473193;32;20096;-87
2022/12/14 03:55:25;;;;;;;48.50;18.27;;;;;;;1.65;57.23;98257.69;4475265;31;20161;-89
2022/12/14 03:57:53;;;;;;;53.03;19.42;;;;;;;1.66;57.14;98255.94;4496044;31;20502;-89
2022/12/14 04:00:23;;;;;;;48.50;18.80;;;;;;;1.69;57.28;98242.88;4503055;31;20087;-89
2022/12/14 04:03:09;;;;;;;52.08;19.65;;;;;;;1.71;57.32;98241.94;4503171;31;20507;-89
2022/12/14 04:05:44;;;;;;;51.88;17.87;;;;;;;1.74;57.16;98235.84;4488986;31;20176;-88
2022/12/14 04:08:25;;;;;;;50.33;19.10;;;;;;;1.72;57.32;98235.00;4488854;31;20068;-88
2022/12/14 04:19:24;;;;;;;47.25;18.08;;;;;;;1.77;57.46;98241.75;4503056;31;20473;-89
2022/12/14 04:21:53;;;;;;;46.65;17.83;;;;;;;1.83;57.67;98237.31;4488703;31;20406;-90
2022/12/14 04:27:29;;;;;;;52.08;18.58;;;;;;;1.86;57.96;98247.63;4490778;31;20148;-90
2022/12/14 04:29:55;;;;;;;46.72;17.60;;;;;;;1.90;57.88;98241.44;4488510;31;20102;-90
2022/12/14 04:32:24;;;;;;;48.50;18.25;;;;;;;1.90;57.89;98231.06;4488489;31;20071;-90
2022/12/14 04:34:53;;;;;;;47.42;17.75;;;;;;;1.96;57.69;98239.50;4502780;31;20088;-90
2022/12/14 04:37:21;;;;;;;47.67;18.83;;;;;;;1.79;57.95;98233.09;4488475;31;20477;-90
2022/12/14 04:40:06;;;;;;;43.78;16.52;;;;;;;1.88;57.82;98230.25;4502755;31;20132;-90
2022/12/14 04:42:35;;;;;;;48.58;17.00;;;;;;;1.91;57.52;98219.75;4502732;31;20155;-90
2022/12/14 04:45:11;;;;;;;47.83;18.50;;;;;;;1.95;57.69;98218.75;4488318;31;20103;-90
2022/12/14 04:47:42;;;;;;;43.03;17.12;;;;;;;1.98;57.82;98218.69;4488474;31;20104;-92
2022/12/14 04:50:17;;;;;;;47.42;17.35;;;;;;;1.92;57.86;98213.69;4488313;31;20080;-91
2022/12/14 04:52:45;;;;;;;43.42;17.08;;;;;;;1.94;57.51;98212.72;4488300;31;20080;-92
2022/12/14 04:55:27;;;;;;;43.20;18.17;;;;;;;1.95;57.60;98205.78;4488214;31;20100;-90
2022/12/14 04:58:12;;;;;;;47.47;17.87;;;;;;;1.21;58.77;98199.19;4488169;31;20096;-91
2022/12/14 05:00:53;;;;;;;46.50;18.12;;;;;;;1.48;58.79;98195.00;4502621;31;20075;-91
2022/12/14 05:03:24;;;;;;;47.10;18.10;;;;;;;1.74;58.20;98196.88;4488124;31;20124;-89
2022/12/14 05:06:16;;;;;;;43.72;16.83;;;;;;;1.84;58.11;98197.47;4488301;31;20149;-88
2022/12/14 05:09:09;;;;;;;47.05;17.83;;;;;;;1.84;57.89;98193.13;4487997;31;20118;-88
2022/12/14 05:11:58;;;;;;;46.95;17.05;;;;;;;1.82;58.08;98202.69;4502273;31;20147;-88
2022/12/14 05:14:31;;;;;;;46.20;17.65;;;;;;;1.83;58.11;98206.12;4502363;31;20186;-89
2022/12/14 05:16:57;;;;;;;45.53;17.23;;;;;;;1.84;57.82;98213.91;4488124;31;20546;-89
2022/12/14 05:19:25;;;;;;;43.42;17.30;;;;;;;1.83;57.73;98219.97;4488047;31;20121;-88
2022/12/14 05:21:51;;;;;;;;;;;;;;;1.66;58.23;98219.59;4485496;31;20143;-89
2022/12/14 05:24:16;;;;;;;41.88;15.98;;;;;;;0.94;60.52;98217.16;4484965;31;19986;-89
2022/12/14 05:26:42;;;;;;;45.72;17.60;;;;;;;1.41;59.21;98202.13;4487578;31;20089;-89
2022/12/14 05:29:08;;;;;;;47.72;17.98;;;;;;;1.07;60.13;98199.56;4486379;31;20152;-88
2022/12/14 05:31:33;;;;;;;40.83;16.20;;;;;;;1.40;59.14;98192.63;4486317;31;20080;-89
2022/12/14 05:33:59;;;;;;;44.10;17.02;;;;;;;1.50;59.10;98190.62;4484811;32;20470;-86
2022/12/14 05:36:24;;;;;;;37.72;15.25;;;;;;;1.66;58.81;98178.06;4486456;32;20141;-87
2022/12/14 05:38:49;;;;;;;38.33;15.40;;;;;;;1.70;58.73;98183.12;4485147;32;20503;-87
2022/12/14 05:41:15;;;;;;;36.70;14.68;;;;;;;1.77;58.24;98189.00;4485351;32;20069;-87
2022/12/14 05:43:40;;;;;;;38.47;15.98;;;;;;;1.82;57.34;98178.50;4486247;32;20089;-87
2022/12/14 05:46:06;;;;;;;34.53;14.20;;;;;;;1.77;57.52;98183.78;4486379;32;20117;-87
2022/12/14 05:48:32;;;;;;;36.10;14.18;;;;;;;1.66;57.70;98184.12;4486302;31;20144;-86
2022/12/14 05:51:09;;;;;;;35.55;14.15;;;;;;;1.59;57.60;98192.97;4473589;32;20416;-88
2022/12/14 05:53:35;;;;;;;32.30;14.15;;;;;;;1.69;57.89;98199.59;4472079;32;20107;-88
2022/12/14 05:56:01;;;;;;;32.90;14.43;;;;;;;1.29;58.63;98198.06;4486153;32;20096;-93
2022/12/14 05:58:26;;;;;;;33.03;14.18;;;;;;;1.62;58.20;98198.06;4486022;32;20408;-92
2022/12/14 06:00:52;;;;;;;36.53;14.20;;;;;;;1.71;57.78;98179.63;4485893;32;20085;-89
2022/12/14 06:03:17;;;;;;;33.72;15.32;;;;;;;1.73;57.80;98169.19;4485801;32;20124;-89
2022/12/14 06:05:43;;;;;;;32.00;13.27;;;;;;;1.52;57.90;98162.88;4485791;32;20448;-89
2022/12/14 06:08:08;;;;;;;32.85;14.05;;;;;;;1.72;57.79;98162.28;4485712;32;20089;-88
2022/12/14 06:10:34;;;;;;;32.05;13.90;;;;;;;1.30;58.61;98160.03;4485506;32;20134;-89
2022/12/14 06:12:59;;;;;;;35.78;13.43;;;;;;;1.57;57.96;98150.63;4485785;32;20073;-88
2022/12/14 06:15:26;;;;;;;33.03;13.35;;;;;;;1.70;57.55;98153.69;4485630;32;20349;-88
2022/12/14 06:17:52;;;;;;;32.17;12.13;;;;;;;1.72;57.33;98159.69;4485678;32;20399;-89
2022/12/14 06:20:17;;;;;;;26.12;11.98;;;;;;;1.83;56.70;98162.00;4485610;32;20110;-89
2022/12/14 06:22:42;;;;;;;32.13;12.45;;;;;;;1.74;56.68;98163.13;4485470;32;20189;-88
2022/12/14 06:25:08;;;;;;;28.70;12.48;;;;;;;1.72;56.77;98162.28;4485583;32;20089;-86
2022/12/14 06:27:34;;;;;;;31.95;12.95;;;;;;;1.74;56.54;98170.91;4485480;32;20089;-89
2022/12/14 06:29:59;;;;;;;31.12;12.37;;;;;;;1.71;56.77;98169.25;4487663;32;20065;-96
2022/12/14 06:32:25;;;;;;;27.80;11.90;;;;;;;1.77;56.54;98169.06;4472346;32;20133;-95
2022/12/14 06:34:51;;;;;;;34.13;14.13;;;;;;;1.75;56.86;98160.47;4515748;26;20148;-96
2022/12/14 06:37:16;;;;;;;26.30;12.18;;;;;;;1.69;57.02;98158.03;4444235;32;20082;-96
2022/12/14 06:39:42;;;;;;;31.45;12.37;;;;;;;1.58;56.79;98167.88;4440918;32;20086;-95
2022/12/14 06:42:07;;;;;;;26.95;12.02;;;;;;;1.63;56.46;98160.81;4440106;32;20104;-94
2022/12/14 06:44:33;;;;;;;32.15;13.02;;;;;;;1.72;56.74;98157.09;4440195;32;20089;-95
2022/12/14 06:46:58;;;;;;;32.88;12.07;;;;;;;1.80;56.61;98157.75;4441202;32;20170;-95
2022/12/14 06:49:24;;;;;;;29.87;13.62;;;;;;;1.85;56.36;98161.03;4442199;32;20086;-94
2022/12/14 06:51:49;;;;;;;29.30;12.50;;;;;;;1.88;56.05;98157.53;4441238;32;20081;-93
2022/12/14 06:54:15;;;;;;;27.73;12.18;;;;;;;1.56;56.85;98157.56;4441237;32;20090;-93
2022/12/14 06:56:43;;;;;;;27.45;13.18;;;;;;;1.77;56.22;98147.44;4427465;32;20146;-93
2022/12/14 06:59:08;;;;;;;30.60;12.55;;;;;;;1.73;56.28;98146.66;4444389;32;20053;-95
2022/12/14 07:01:35;;;;;;;31.10;12.55;;;;;;;1.73;56.17;98144.06;4445021;32;20078;-87
2022/12/14 07:04:00;;;;;;;29.45;12.95;;;;;;;1.48;56.57;98143.09;4441128;32;20073;-94
2022/12/14 07:06:27;;;;;;;30.48;13.35;;;;;;;1.74;56.28;98139.75;4441034;32;20116;-93
2022/12/14 07:08:54;;;;;;;28.10;13.20;;;;;;;1.80;56.00;98146.50;4427722;32;20521;-96
2022/12/14 07:11:20;;;;;;;30.30;13.80;;;;;;;1.86;55.90;98144.56;4439856;32;20090;-90
2022/12/14 07:13:46;;;;;;;27.02;11.57;;;;;;;1.92;56.05;98135.75;4438364;32;20102;-89
2022/12/14 07:16:17;;;;;;;31.77;13.50;;;;;;;1.84;55.81;98132.53;4438392;32;20116;-94
2022/12/14 07:18:43;;;;;;;28.25;11.68;;;;;;;1.83;55.82;98123.88;4428161;32;20089;-90
2022/12/14 07:21:11;;;;;;;28.20;12.98;;;;;;;1.78;55.88;98118.00;4424573;32;20085;-85
2022/12/14 07:23:37;;;;;;;30.05;12.85;;;;;;;1.86;55.59;98118.59;4426954;32;20468;-86
2022/12/14 07:26:24;;;;;;;26.37;12.27;;;;;;;1.66;56.00;98114.00;4426670;32;20170;-93
2022/12/14 07:28:51;;;;;;;29.65;13.18;;;;;;;1.60;56.33;98115.94;4440583;32;20105;-95
2022/12/14 07:31:19;;;;;;;29.08;12.63;;;;;;;1.65;56.17;98125.28;4440894;32;20066;-87
2022/12/14 07:33:45;;;;;;;28.02;12.88;;;;;;;1.81;56.50;98124.81;4427006;32;20153;-88
2022/12/14 07:36:14;;;;;;;31.05;12.82;;;;;;;1.82;56.65;98121.34;4422570;32;20591;-95
2022/12/14 07:38:41;;;;;;;27.80;11.25;;;;;;;1.76;56.45;98114.59;4422208;32;20127;-94
2022/12/14 07:41:09;;;;;;;29.70;12.93;;;;;;;2.03;55.90;98117.22;4424921;32;20350;-91
2022/12/14 07:43:35;;;;;;;29.60;12.07;;;;;;;2.10;56.16;98126.53;4419603;32;20461;-94
2022/12/14 07:46:03;;;;;;;30.40;13.18;;;;;;;1.78;56.36;98130.97;4421406;32;20453;-91
2022/12/14 07:48:29;;;;;;;33.70;13.77;;;;;;;1.41;56.63;98137.22;4425665;32;20111;-91
2022/12/14 07:51:00;;;;;;;34.53;13.30;;;;;;;0.98;57.99;98147.03;4407980;32;20077;-92
2022/12/14 07:53:25;;;;;;;29.63;12.98;;;;;;;0.77;58.83;98158.81;4426594;32;20507;-90
2022/12/14 07:55:51;;;;;;;32.75;12.73;;;;;;;1.35;57.27;98166.81;4430424;32;20141;-92
2022/12/14 07:58:16;;;;;;;31.85;12.48;;;;;;;1.68;56.73;98155.50;4430138;32;20164;-91
2022/12/14 08:00:41;;;;;;;30.48;12.93;;;;;;;1.80;56.44;98138.69;4431911;32;20104;-90
2022/12/14 08:03:07;;;;;;;29.75;13.07;;;;;;;1.84;55.99;98145.53;4432663;32;20167;-90
2022/12/14 08:05:32;;;;;;;32.55;13.45;;;;;;;1.47;56.91;98142.25;4430706;32;20474;-92
2022/12/14 08:07:57;;;;;;;32.25;13.32;;;;;;;1.14;57.26;98146.59;4414595;32;20141;-91
2022/12/14 08:10:23;;;;;;;32.83;12.85;;;;;;;1.62;56.69;98142.69;4427873;32;20343;-88
2022/12/14 08:12:49;;;;;;;31.83;11.85;;;;;;;1.65;56.56;98140.84;4425643;32;20081;-85
2022/12/14 08:15:14;;;;;;;30.75;11.98;;;;;;;1.54;56.53;98142.91;4437075;32;20093;-90
2022/12/14 08:17:39;;;;;;;29.87;12.82;;;;;;;1.75;55.40;98136.25;4444099;32;20073;-96
2022/12/14 08:20:06;;;;;;;27.42;11.65;;;;;;;1.76;55.11;98136.22;4446420;32;20346;-96
2022/12/14 08:22:31;;;;;;;32.65;13.73;;;;;;;1.57;55.49;98141.09;4430318;32;20136;-96
2022/12/14 08:24:56;;;;;;;29.05;12.43;;;;;;;1.85;55.14;98136.81;4432554;32;20102;-96
2022/12/14 08:27:22;;;;;;;34.03;12.15;;;;;;;1.61;55.80;98133.22;4447015;32;20361;-96
2022/12/14 08:29:47;;;;;;;28.80;12.27;;;;;;;1.88;54.91;98141.94;4446226;32;20134;-96
2022/12/14 08:32:13;;;;;;;31.02;12.90;;;;;;;2.08;54.47;98142.16;4444277;32;20098;-96
2022/12/14 08:34:38;;;;;;;31.45;12.77;;;;;;;2.26;53.99;98139.88;4427357;32;20098;-96
2022/12/14 08:37:03;;;;;;;32.53;12.85;;;;;;;2.32;54.00;98139.72;4444013;32;20093;-96
2022/12/14 08:39:29;;;;;;;31.17;13.52;;;;;;;2.24;54.00;98145.16;4442307;32;20134;-96
2022/12/14 08:41:54;;;;;;;30.60;12.13;;;;;;;2.44;53.77;98134.13;4527541;26;20149;-96
2022/12/14 08:44:20;;;;;;;29.00;11.85;;;;;;;2.23;53.80;98127.84;4469154;26;20117;-96
2022/12/14 08:46:45;;;;;;;29.65;12.77;;;;;;;2.47;52.98;98128.84;4477131;32;20100;-96
2022/12/14 08:49:11;;;;;;;28.40;12.65;;;;;;;2.43;53.06;98126.37;4475922;32;20085;-96
2022/12/14 08:51:37;;;;;;;29.40;11.57;;;;;;;2.22;53.33;98125.31;4466306;32;20092;-96
2022/12/14 08:54:02;;;;;;;27.58;11.75;;;;;;;2.35;53.12;98116.22;4475815;32;20088;-96
2022/12/14 08:56:28;;;;;;;31.70;12.90;;;;;;;2.35;52.99;98104.06;4478923;32;20052;-96
2022/12/14 08:58:54;;;;;;;27.95;11.80;;;;;;;2.31;52.99;98092.06;4520885;26;20057;-96
2022/12/14 09:01:22;;;;;;;28.58;11.70;;;;;;;2.32;52.95;98082.53;4470089;26;20073;-93
2022/12/14 09:03:48;;;;;;;28.42;11.95;;;;;;;2.41;52.65;98081.37;4462818;32;20101;-96
2022/12/14 09:06:19;;;;;;;28.40;11.30;;;;;;;2.41;52.77;98090.00;4461707;32;20084;-96
2022/12/14 09:08:44;;;;;;;30.52;12.43;;;;;;;2.31;52.99;98101.63;4474783;32;20080;-96
2022/12/14 09:11:11;;;;;;;28.02;12.68;;;;;;;2.42;52.85;98089.13;4463223;32;20101;-96
2022/12/14 09:13:37;;;;;;;28.97;11.20;;;;;;;2.09;54.01;98099.72;4463972;32;20065;-96
2022/12/14 09:16:12;;;;;;;30.17;11.95;;;;;;;2.39;52.99;98091.81;4459449;32;20453;-96
2022/12/14 09:18:38;;;;;;;28.45;11.95;;;;;;;2.51;52.58;98094.03;4446932;32;20099;-96
2022/12/14 09:21:03;;;;;;;28.98;12.00;;;;;;;2.65;52.46;98095.31;4476033;32;20101;-96
2022/12/14 09:23:30;;;;;;;29.20;11.55;;;;;;;2.64;52.03;98089.25;4459610;32;20092;-96
2022/12/14 09:26:05;;;;;;;31.77;11.15;;;;;;;1.99;53.57;98090.50;4473852;32;20089;-96
2022/12/14 09:28:32;;;;;;;29.30;12.35;;;;;;;2.35;53.03;98098.03;4457512;32;20112;-96
2022/12/14 09:30:59;;;;;;;27.83;12.65;;;;;;;2.64;52.54;98104.00;4462333;32;20090;-96
2022/12/14 09:33:25;;;;;;;28.17;11.38;;;;;;;1.64;54.31;98088.97;4478284;32;20057;-96
2022/12/14 09:35:50;;;;;;;27.35;11.30;;;;;;;2.21;52.81;98082.03;4472193;32;20108;-96
2022/12/14 09:38:16;;;;;;;27.58;12.20;;;;;;;2.57;52.37;98079.97;4474420;32;20425;-96
2022/12/14 09:40:47;;;;;;;34.05;12.60;;;;;;;2.60;52.31;98077.25;4461532;32;20166;-96
2022/12/14 09:43:42;;;;;;;28.25;12.27;;;;;;;2.41;52.73;98077.03;4458526;32;20180;-96
2022/12/14 09:46:30;;;;;;;29.42;11.35;;;;;;;2.69;52.25;98065.72;4462367;32;20109;-96
2022/12/14 09:48:56;;;;;;;29.30;11.98;;;;;;;2.87;51.81;98048.59;4446408;32;20061;-96
2022/12/14 09:51:24;;;;;;;28.80;12.45;;;;;;;2.98;51.60;98038.69;4446905;32;20591;-96
2022/12/14 09:53:55;;;;;;;28.23;11.35;;;;;;;3.03;51.39;98033.28;4457504;32;20524;-96
2022/12/14 09:56:20;;;;;;;30.20;12.30;;;;;;;3.13;51.21;98032.91;4460336;32;20069;-96
2022/12/14 09:58:56;;;;;;;28.12;12.13;;;;;;;3.33;50.61;98024.34;4459690;32;20077;-96
2022/12/14 10:01:21;;;;;;;28.08;11.63;;;;;;;3.02;51.06;98029.84;4462985;32;20070;-93
2022/12/14 10:04:24;;;;;;;30.65;12.50;;;;;;;2.51;52.00;98036.84;4479775;26;20410;-96
2022/12/14 10:09:33;;;;;;;25.48;11.52;;;;;;;3.03;51.00;98026.31;4515207;27;35823;-96
2022/12/14 10:12:27;;;;;;;31.62;11.30;;;;;;;3.04;51.08;98029.81;4428045;32;20166;-95
2022/12/14 10:15:04;;;;;;;29.52;11.20;;;;;;;3.13;50.55;98032.91;4400320;32;20127;-96
2022/12/14 10:17:55;;;;;;;27.40;11.43;;;;;;;3.13;50.72;98040.72;4410209;32;20137;-96
2022/12/14 10:20:32;;;;;;;28.35;11.52;;;;;;;3.09;50.83;98035.66;4401886;32;20536;-96
2022/12/14 10:22:59;;;;;;;28.50;11.63;;;;;;;2.49;51.96;98024.78;4400026;32;20070;-96
2022/12/14 10:25:29;;;;;;;28.65;11.68;;;;;;;2.52;51.84;98020.31;4410059;32;20502;-96
2022/12/14 10:28:04;;;;;;;26.37;11.00;;;;;;;2.65;51.97;98023.34;4397714;32;20156;-96
2022/12/14 10:30:29;;;;;;;26.35;11.27;;;;;;;2.87;51.45;98012.19;4415169;32;20480;-96
2022/12/14 10:33:13;;;;;;;28.42;12.27;;;;;;;2.71;51.61;98006.69;4402919;32;20122;-96
2022/12/14 10:35:53;;;;;;;26.52;11.40;;;;;;;2.98;51.00;97993.59;4400847;32;20102;-96
2022/12/14 10:38:31;;;;;;;26.90;11.25;;;;;;;3.22;50.55;97986.63;4390894;27;20179;-96
2022/12/14 10:41:24;;;;;;;30.15;12.55;;;;;;;3.31;50.24;97976.72;4395608;32;20081;-96
2022/12/14 10:44:06;;;;;;;27.83;12.18;;;;;;;2.53;52.29;97980.44;4386263;32;20079;-96
2022/12/14 10:46:49;;;;;;;26.40;11.52;;;;;;;2.95;51.06;97971.13;4414143;32;20216;-96
2022/12/14 10:49:23;;;;;;;29.37;11.52;;;;;;;3.06;50.55;97984.59;4442741;32;20081;-96
2022/12/14 10:51:54;;;;;;;28.55;12.20;;;;;;;2.97;51.24;97973.69;4440059;32;20082;-96
2022/12/14 10:54:26;;;;;;;28.58;11.68;;;;;;;3.02;51.16;97963.97;4447447;32;20124;-96
2022/12/14 10:56:51;;;;;;;29.80;11.82;;;;;;;3.20;50.53;97962.41;4433155;32;20162;-96
2022/12/14 10:59:16;;;;;;;27.05;11.32;;;;;;;3.09;50.63;97961.06;4458718;32;20054;-96
2022/12/14 11:01:44;;;;;;;29.23;11.45;;;;;;;3.10;50.97;97967.97;4484758;26;20115;-96
2022/12/14 11:04:29;;;;;;;29.30;10.93;;;;;;;2.92;51.06;97960.84;4479213;32;20057;-96
2022/12/14 11:07:00;;;;;;;30.60;12.68;;;;;;;3.36;50.03;97958.28;4492400;32;20464;-96
2022/12/14 11:09:26;;;;;;;26.25;10.55;;;;;;;2.91;50.23;97962.59;4477312;32;20154;-96
2022/12/14 11:12:01;;;;;;;28.95;11.10;;;;;;;3.30;50.12;97969.81;4477658;32;20095;-96
2022/12/14 11:14:27;;;;;;;28.05;11.60;;;;;;;2.27;51.95;97978.72;4461310;32;20479;-96
2022/12/14 11:16:53;;;;;;;28.75;11.77;;;;;;;3.17;50.65;97966.00;4474005;32;20119;-96
2022/12/14 11:19:21;;;;;;;27.75;11.73;;;;;;;3.40;50.27;97961.62;4487696;32;20115;-96
2022/12/14 11:21:47;;;;;;;28.48;11.00;;;;;;;3.57;49.95;97953.16;4474657;32;20088;-96
2022/12/14 11:24:34;;;;;;;27.17;12.30;;;;;;;3.49;49.79;97956.06;4474812;32;20135;-96
2022/12/14 11:27:02;;;;;;;23.52;9.73;;;;;;;3.23;50.28;97944.94;4477751;32;20092;-96
2022/12/14 11:29:33;;;;;;;24.33;9.85;;;;;;;3.29;50.14;97939.47;4477118;32;20080;-96
2022/12/14 11:31:59;;;;;;;27.65;11.20;;;;;;;2.53;51.47;97946.62;4478164;32;20061;-96
2022/12/14 11:34:33;;;;;;;26.30;11.65;;;;;;;1.61;54.52;97952.34;4473934;32;20085;-96
2022/12/14 11:37:25;;;;;;;26.62;11.30;;;;;;;2.69;52.06;97939.12;4474038;32;20251;-96
2022/12/14 11:39:59;;;;;;;26.37;10.45;;;;;;;3.09;51.03;97924.62;4476132;32;20107;-96
2022/12/14 11:42:24;;;;;;;31.15;12.95;;;;;;;3.35;50.82;97917.56;4476547;32;20119;-96
2022/12/14 11:44:51;;;;;;;26.90;11.43;;;;;;;3.48;50.08;97917.94;4491634;32;20468;-96
2022/12/14 11:47:29;;;;;;;28.55;12.13;;;;;;;3.34;50.36;97919.34;4493210;32;20773;-96
2022/12/14 11:49:56;;;;;;;29.20;11.45;;;;;;;3.10;50.22;97912.47;4480761;32;20490;-96
2022/12/14 11:52:23;;;;;;;28.40;11.20;;;;;;;3.26;50.29;97910.94;4476836;32;20102;-96
2022/12/14 11:54:52;;;;;;;27.00;11.70;;;;;;;3.20;50.68;97894.75;4476582;32;20121;-96